Miami, FL

1:27 AM EDT on September 02, 2014 (GMT -0400)
JA Richmond West | Change Station
CLOSE
Current Station
Personal Weather Station
Location: Miami, FL
Elevation: 7 ft
Nearby Weather Stations

Elev 7 ft 25.61 °N, 80.43 °W | Updated 19 seconds ago

Clear
Clear
80.1 °F
Feels Like 85 °F
N
1.1
Wind Variable Wind from East
Gusts 2.2 mph

Today
High -- | Low -- °F
--% Chance of Precip.
Yesterday
High -- | Low -- °F
Precip. -- in
7:02 AM 7:39 PM
Waxing Crescent, 48% visible
Pressure 30.08 in
Visibility 10.0 miles
Clouds Clear
Heat Index 85 °F
Dew Point 75 °F
Humidity 85%
Rainfall 0.00 in
Snow Depth Not available.
UV 0 out of 12
Pollen 4.40 out of 12
PM2.5 Good
Flu Activity Not available.
METAR KTMB 020453Z 07004KT 10SM CLR 28/23 A3008 RMK AO2 SLP185 T02780233 403330256

More Conditions Fewer Conditions

Pressure 30.08 in
Visibility 10.0 miles
Clouds Clear
Heat Index 85 °F
Dew Point 75 °F
Humidity 85%
Rainfall 0.00 in
Snow Depth Not available.
UV 0 out of 12
Pollen 4.40 out of 12
PM2.5 Good
Flu Activity Not available.
METAR KTMB 020453Z 07004KT 10SM CLR 28/23 A3008 RMK AO2 SLP185 T02780233 403330256

More Conditions Fewer Conditions

Nowcast | as of 11:45 PM EDT on September 1, 2014

A few small showers will affect Broward and Miami-Dade counties and the adjacent waters. The showers will be brief as they move west at around 10 mph.

×

10-Day Weather Forecast

Almanac

Astronomy

Sep. 02, 2014 Rise Set
Actual Time 7:02 AM EDT 7:39 PM EDT
Civil Twilight 6:39 AM EDT 8:02 PM EDT
Nautical Twilight 6:11 AM EDT 8:30 PM EDT
Astronomical Twilight 5:44 AM EDT 8:58 PM EDT
Moon 2:03 PM EDT 12:20 AM EDT
Length of Visible Light 13h 23m
Length of Day
12h 37m
Tomorrow will be 1m 27s shorter.
Waxing Crescent, 48% of the Moon is Illuminated
Today
Waxing Crescent
Sep 2
First Quarter
Sep 8
Full
Sep 15
Last Quarter
Sep 24
New

Today's Extremes

State Highs State Lows

Community

WunderPhotos

Upload Photos

1,749,575 photos uploaded!

WunderBlogs® & News

Nearby

Air Quality

  Air Quality AQ Index Pollutant
Yesterday Moderate
PM2.5
Yesterday Good
OZONE
Current Good
PM2.5
Monday Moderate
PM2.5
Monday Good
OZONE
Tuesday Moderate
PM2.5
Tuesday Good
OZONE

Snow Depth

Station Depth Elevation
No new snow has been reported.

Earthquake Activity

City Distance Mag. Time & Date
No recent earthquake activity has been reported nearby.
Minimum magnitude displayed is 2.5.

Coastal Water Temperatures

Place Temperature
Virginia Key, FL 87.1 °F

Nearby Weather Stations